createdAt,value
2023-02-19T00:01:45.726Z,12.98
2023-02-19T00:04:22.158Z,13.38
2023-02-19T00:06:55.349Z,15.20
2023-02-19T00:09:22.696Z,11.68
2023-02-19T00:11:50.299Z,12.70
2023-02-19T00:14:21.062Z,12.90
2023-02-19T00:16:48.930Z,12.82
2023-02-19T00:19:20.274Z,13.27
2023-02-19T00:21:49.460Z,14.02
2023-02-19T00:24:17.331Z,13.07
2023-02-19T00:26:45.956Z,11.52
2023-02-19T00:29:15.984Z,14.40
2023-02-19T00:31:43.776Z,11.00
2023-02-19T00:34:12.649Z,14.60
2023-02-19T00:36:41.386Z,13.02
2023-02-19T00:39:09.143Z,12.10
2023-02-19T00:41:36.213Z,12.38
2023-02-19T00:44:07.118Z,14.85
2023-02-19T00:46:37.011Z,12.57
2023-02-19T00:49:06.923Z,11.20
2023-02-19T00:51:36.651Z,13.52
2023-02-19T00:54:05.312Z,12.15
2023-02-19T00:56:32.685Z,12.50
2023-02-19T00:58:59.875Z,12.07
2023-02-19T01:01:27.102Z,14.57
2023-02-19T01:03:54.447Z,11.63
2023-02-19T01:06:22.357Z,12.13
2023-02-19T01:08:50.483Z,12.93
2023-02-19T01:11:18.197Z,12.20
2023-02-19T01:13:45.306Z,11.40
2023-02-19T01:16:16.173Z,11.18
2023-02-19T01:18:44.566Z,11.73
2023-02-19T01:21:23.266Z,10.98
2023-02-19T01:23:51.548Z,11.77
2023-02-19T01:26:21.780Z,9.85
2023-02-19T01:28:49.566Z,11.38
2023-02-19T01:31:20.580Z,10.02
2023-02-19T01:33:53.551Z,13.35
2023-02-19T01:36:21.531Z,11.60
2023-02-19T01:38:49.843Z,8.73
2023-02-19T01:41:21.338Z,9.82
2023-02-19T01:44:12.848Z,10.68
2023-02-19T01:46:44.710Z,12.35
2023-02-19T01:49:28.082Z,11.68
2023-02-19T01:52:06.603Z,9.05
2023-02-19T01:54:38.157Z,10.75
2023-02-19T01:57:12.010Z,11.32
2023-02-19T01:59:40.830Z,12.10
2023-02-19T02:02:09.903Z,10.20
2023-02-19T02:04:37.028Z,11.25
2023-02-19T02:07:26.488Z,9.95
2023-02-19T02:10:12.990Z,10.93
2023-02-19T02:12:40.103Z,12.60
2023-02-19T02:15:07.991Z,11.40
2023-02-19T02:17:56.268Z,12.38
2023-02-19T02:20:35.106Z,12.70
2023-02-19T02:23:17.057Z,12.23
2023-02-19T02:25:50.168Z,10.43
2023-02-19T02:28:45.889Z,7.85
2023-02-19T02:31:18.325Z,8.35
2023-02-19T02:34:06.777Z,9.68
2023-02-19T02:36:39.370Z,9.82
2023-02-19T02:39:11.670Z,7.68
2023-02-19T02:42:19.386Z,8.02
2023-02-19T02:45:16.717Z,11.27
2023-02-19T02:47:52.821Z,9.57
2023-02-19T02:50:29.467Z,9.43
2023-02-19T02:53:19.254Z,7.68
2023-02-19T02:55:50.404Z,8.13
2023-02-19T02:58:19.926Z,8.63
2023-02-19T03:01:17.434Z,10.98
2023-02-19T03:03:48.233Z,9.63
2023-02-19T03:06:18.799Z,9.07
2023-02-19T03:09:07.009Z,8.73
2023-02-19T03:11:56.635Z,11.05
2023-02-19T03:14:52.822Z,10.38
2023-02-19T03:17:52.125Z,10.30
2023-02-19T03:20:23.829Z,12.70
2023-02-19T03:22:53.298Z,8.75
2023-02-19T03:25:44.017Z,11.23
2023-02-19T03:28:17.833Z,9.35
2023-02-19T03:30:53.186Z,11.43
2023-02-19T03:33:25.055Z,11.77
2023-02-19T03:36:02.547Z,9.35
2023-02-19T03:38:52.987Z,8.82
2023-02-19T03:41:35.692Z,9.18
2023-02-19T03:44:20.637Z,10.60
2023-02-19T03:47:05.637Z,10.43
2023-02-19T03:49:42.171Z,12.35
2023-02-19T03:52:40.457Z,9.30
2023-02-19T03:55:23.619Z,9.02
2023-02-19T03:58:06.230Z,8.50
2023-02-19T04:00:49.794Z,9.68
2023-02-19T04:03:29.063Z,9.32
2023-02-19T04:06:02.592Z,10.65
2023-02-19T04:08:34.062Z,14.02
2023-02-19T04:11:05.851Z,10.18
2023-02-19T04:13:54.824Z,9.90
2023-02-19T04:16:26.811Z,10.93
2023-02-19T04:18:57.599Z,11.52
2023-02-19T04:21:25.989Z,11.02
2023-02-19T04:23:53.124Z,11.85
2023-02-19T04:26:23.134Z,10.98
2023-02-19T04:28:50.642Z,10.57
2023-02-19T04:31:17.948Z,9.98
2023-02-19T04:33:45.137Z,9.95
2023-02-19T04:36:12.508Z,12.85
2023-02-19T04:38:39.575Z,8.45
2023-02-19T04:41:06.740Z,7.60
2023-02-19T04:43:34.255Z,10.45
2023-02-19T04:46:02.834Z,9.20
2023-02-19T04:48:30.233Z,9.13
2023-02-19T04:50:57.343Z,9.32
2023-02-19T04:53:24.448Z,9.32
2023-02-19T04:55:53.446Z,9.60
2023-02-19T04:58:21.482Z,8.90
2023-02-19T05:01:00.254Z,9.95
2023-02-19T05:03:29.490Z,7.60
2023-02-19T05:05:56.681Z,8.45
2023-02-19T05:08:24.184Z,10.13
2023-02-19T05:10:51.436Z,9.43
2023-02-19T05:13:18.862Z,9.68
2023-02-19T05:16:05.809Z,10.07
2023-02-19T05:18:34.901Z,7.57
2023-02-19T05:21:02.471Z,8.23
2023-02-19T05:23:29.838Z,9.65
2023-02-19T05:26:05.343Z,8.75
2023-02-19T05:28:35.318Z,13.52
2023-02-19T05:31:13.848Z,9.65
2023-02-19T05:33:43.471Z,11.45
2023-02-19T05:36:13.269Z,12.00
2023-02-19T05:38:41.753Z,9.98
2023-02-19T05:41:13.379Z,10.60
2023-02-19T05:43:42.278Z,7.85
2023-02-19T05:46:11.219Z,9.63
2023-02-19T05:48:38.761Z,8.52
2023-02-19T05:51:10.141Z,8.35
2023-02-19T05:53:38.754Z,8.50
2023-02-19T05:56:21.189Z,8.60
2023-02-19T05:58:48.414Z,8.48
2023-02-19T06:01:17.516Z,10.07
2023-02-19T06:03:44.675Z,10.95
2023-02-19T06:06:14.943Z,10.48
2023-02-19T06:08:42.297Z,9.55
2023-02-19T06:11:11.178Z,9.15
2023-02-19T06:13:38.453Z,10.93
2023-02-19T06:16:07.203Z,8.48
2023-02-19T06:18:35.124Z,10.00
2023-02-19T06:21:06.237Z,10.00
2023-02-19T06:23:33.732Z,7.90
2023-02-19T06:26:11.806Z,7.28
2023-02-19T06:28:41.073Z,10.65
2023-02-19T06:31:09.655Z,9.45
2023-02-19T06:33:40.583Z,8.82
2023-02-19T06:36:12.601Z,11.73
2023-02-19T06:38:40.052Z,9.50
2023-02-19T06:41:08.945Z,11.70
2023-02-19T06:43:37.904Z,10.48
2023-02-19T06:46:07.163Z,9.45
2023-02-19T06:48:35.185Z,10.20
2023-02-19T06:51:02.890Z,9.35
2023-02-19T06:53:30.333Z,10.18
2023-02-19T06:56:03.342Z,9.65
2023-02-19T06:58:31.263Z,9.98
2023-02-19T07:00:58.570Z,10.40
2023-02-19T07:03:26.635Z,9.65
2023-02-19T07:05:54.016Z,10.23
2023-02-19T07:08:21.375Z,12.25
2023-02-19T07:10:58.772Z,9.27
2023-02-19T07:13:27.126Z,12.48
2023-02-19T07:16:02.383Z,12.57
2023-02-19T07:18:31.201Z,10.20
2023-02-19T07:21:05.078Z,11.88
2023-02-19T07:23:32.383Z,15.73
2023-02-19T07:25:59.927Z,8.82
2023-02-19T07:28:27.628Z,12.40
2023-02-19T07:31:01.232Z,11.73
2023-02-19T07:33:28.671Z,13.38
2023-02-19T07:35:56.232Z,9.45
2023-02-19T07:38:24.972Z,9.68
2023-02-19T07:40:56.581Z,9.10
2023-02-19T07:43:29.591Z,11.38
2023-02-19T07:45:57.038Z,12.15
2023-02-19T07:48:24.439Z,11.88
2023-02-19T07:50:55.767Z,11.55
2023-02-19T07:53:24.039Z,11.90
2023-02-19T07:55:51.244Z,12.18
2023-02-19T07:58:18.917Z,13.95
2023-02-19T08:00:46.348Z,10.57
2023-02-19T08:03:13.540Z,12.05
2023-02-19T08:05:42.469Z,13.57
2023-02-19T08:08:12.373Z,13.68
2023-02-19T08:10:58.666Z,9.65
2023-02-19T08:13:30.976Z,11.07
2023-02-19T08:16:16.973Z,10.82
2023-02-19T08:18:48.420Z,11.70
2023-02-19T08:21:18.407Z,12.52
2023-02-19T08:23:46.570Z,11.38
2023-02-19T08:26:13.966Z,11.52
2023-02-19T08:28:41.840Z,10.65
2023-02-19T08:31:11.749Z,10.38
2023-02-19T08:33:39.268Z,10.52
2023-02-19T08:36:08.828Z,10.35
2023-02-19T08:38:36.989Z,13.55
2023-02-19T08:41:08.551Z,11.80
2023-02-19T08:43:36.462Z,10.77
2023-02-19T08:46:04.503Z,10.40
2023-02-19T08:48:31.945Z,12.30
2023-02-19T08:51:04.551Z,11.57
2023-02-19T08:53:32.944Z,9.85
2023-02-19T08:56:05.499Z,13.10
2023-02-19T08:58:33.254Z,10.75
2023-02-19T09:01:00.616Z,11.23
2023-02-19T09:03:27.758Z,10.88
2023-02-19T09:05:55.027Z,10.93
2023-02-19T09:08:22.219Z,9.98
2023-02-19T09:11:07.597Z,14.55
2023-02-19T09:13:34.773Z,9.02
2023-02-19T09:16:04.486Z,11.13
2023-02-19T09:18:32.056Z,11.57
2023-02-19T09:21:06.150Z,12.38
2023-02-19T09:23:34.651Z,10.80
2023-02-19T09:26:04.137Z,11.18
2023-02-19T09:28:31.591Z,9.38
2023-02-19T09:31:08.292Z,11.07
2023-02-19T09:33:35.585Z,9.35
2023-02-19T09:36:03.950Z,12.23
2023-02-19T09:38:31.125Z,12.48
2023-02-19T09:41:05.797Z,9.48
2023-02-19T09:43:33.772Z,10.43
2023-02-19T09:46:17.630Z,9.57
2023-02-19T09:48:44.704Z,9.45
2023-02-19T09:51:14.192Z,8.38
2023-02-19T09:53:44.539Z,7.65
2023-02-19T09:56:11.933Z,8.55
2023-02-19T09:58:59.580Z,9.77
2023-02-19T10:01:32.762Z,11.32
2023-02-19T10:04:00.353Z,10.02
2023-02-19T10:06:30.005Z,11.10
2023-02-19T10:09:13.816Z,9.07
2023-02-19T10:11:42.408Z,10.52
2023-02-19T10:14:19.189Z,10.75
2023-02-19T10:16:49.364Z,13.77
2023-02-19T10:19:17.259Z,8.50
2023-02-19T10:21:45.322Z,10.82
2023-02-19T10:24:27.474Z,10.23
2023-02-19T10:26:55.298Z,7.95
2023-02-19T10:29:24.751Z,10.13
2023-02-19T10:32:21.180Z,10.60
2023-02-19T10:34:54.052Z,9.27
2023-02-19T10:37:21.268Z,10.63
2023-02-19T10:39:50.802Z,10.48
2023-02-19T10:42:23.300Z,9.35
2023-02-19T10:44:55.735Z,11.88
2023-02-19T10:47:25.960Z,13.27
2023-02-19T10:49:58.065Z,9.00
2023-02-19T10:52:36.756Z,11.68
2023-02-19T10:55:25.253Z,12.30
2023-02-19T10:57:52.317Z,8.27
2023-02-19T11:00:23.214Z,11.13
2023-02-19T11:02:51.039Z,12.93
2023-02-19T11:05:21.509Z,11.07
2023-02-19T11:07:50.220Z,9.35
2023-02-19T11:10:40.758Z,15.35
2023-02-19T11:13:16.584Z,12.70
2023-02-19T11:15:50.574Z,11.05
2023-02-19T11:18:26.794Z,12.00
2023-02-19T11:20:57.828Z,13.27
2023-02-19T11:23:46.538Z,9.90
2023-02-19T11:26:27.601Z,10.25
2023-02-19T11:29:00.777Z,12.45
2023-02-19T11:31:34.420Z,11.90
2023-02-19T11:34:29.528Z,13.38
2023-02-19T11:37:15.158Z,17.25
2023-02-19T11:39:45.490Z,18.30
2023-02-19T11:42:23.905Z,11.43
2023-02-19T11:45:07.197Z,11.13
2023-02-19T11:47:57.369Z,11.98
2023-02-19T11:50:30.636Z,13.43
2023-02-19T11:53:16.816Z,14.93
2023-02-19T11:56:07.297Z,14.00
2023-02-19T11:59:05.383Z,14.30
2023-02-19T12:01:54.494Z,12.38
2023-02-19T12:04:43.188Z,16.73
2023-02-19T12:07:23.210Z,12.50
2023-02-19T12:10:21.274Z,17.73
2023-02-19T12:12:52.753Z,10.88
2023-02-19T12:15:31.642Z,13.40
2023-02-19T12:18:16.859Z,14.85
2023-02-19T12:24:15.913Z,13.75
2023-02-19T12:27:00.976Z,17.15
2023-02-19T12:29:57.458Z,14.90
2023-02-19T12:32:47.924Z,14.02
2023-02-19T12:35:48.277Z,14.73
2023-02-19T12:38:23.777Z,15.23
2023-02-19T12:40:59.364Z,18.08
2023-02-19T12:43:26.986Z,17.85
2023-02-19T12:46:01.139Z,16.08
2023-02-19T12:48:44.612Z,16.45
2023-02-19T12:51:25.873Z,18.95
2023-02-19T12:54:19.267Z,16.90
2023-02-19T12:56:57.571Z,16.83
2023-02-19T12:59:26.738Z,17.45
2023-02-19T13:02:05.956Z,18.35
2023-02-19T13:04:45.617Z,20.00
2023-02-19T13:07:26.295Z,15.93
2023-02-19T13:10:03.345Z,18.92
2023-02-19T13:12:36.974Z,19.20
2023-02-19T13:15:14.988Z,20.33
2023-02-19T13:17:47.809Z,16.67
2023-02-19T13:20:29.912Z,19.63
2023-02-19T13:23:32.031Z,16.52
2023-02-19T13:26:16.426Z,16.40
2023-02-19T13:29:05.197Z,13.55
2023-02-19T13:31:38.644Z,16.15
2023-02-19T13:34:31.877Z,18.88
2023-02-19T13:36:59.821Z,16.40
2023-02-19T13:39:28.493Z,18.27
2023-02-19T13:42:02.071Z,14.85
2023-02-19T13:44:31.915Z,15.05
2023-02-19T13:46:59.921Z,17.70
2023-02-19T13:49:31.690Z,18.85
2023-02-19T13:52:23.404Z,17.75
2023-02-19T13:54:51.450Z,18.20
2023-02-19T13:57:18.558Z,23.25
2023-02-19T13:59:46.634Z,16.75
2023-02-19T14:02:23.219Z,16.60
2023-02-19T14:05:44.409Z,12.77
2023-02-19T14:08:11.586Z,15.30
2023-02-19T14:11:02.681Z,12.77
2023-02-19T14:13:51.061Z,13.82
2023-02-19T14:16:38.128Z,17.33
2023-02-19T14:19:14.926Z,15.23
2023-02-19T14:21:44.066Z,15.40
2023-02-19T14:24:13.675Z,17.30
2023-02-19T14:26:41.847Z,14.88
2023-02-19T14:29:12.942Z,15.23
2023-02-19T14:31:40.830Z,14.77
2023-02-19T14:34:25.123Z,15.13
2023-02-19T14:36:55.627Z,11.73
2023-02-19T14:39:29.082Z,14.55
2023-02-19T14:42:02.138Z,12.95
2023-02-19T14:44:34.721Z,12.20
2023-02-19T14:47:07.506Z,14.38
2023-02-19T14:49:43.827Z,12.65
2023-02-19T14:52:25.140Z,13.70
2023-02-19T14:55:01.655Z,11.55
2023-02-19T14:57:35.962Z,11.48
2023-02-19T15:00:21.862Z,10.68
2023-02-19T15:02:51.179Z,11.63
2023-02-19T15:05:26.038Z,11.63
2023-02-19T15:10:22.854Z,13.30
2023-02-19T15:12:54.112Z,10.60
2023-02-19T15:15:30.453Z,12.65
2023-02-19T15:18:01.455Z,11.90
2023-02-19T15:20:32.782Z,12.13
2023-02-19T15:23:01.970Z,12.73
2023-02-19T15:25:38.155Z,13.18
2023-02-19T15:28:33.430Z,12.85
2023-02-19T15:31:00.602Z,13.38
2023-02-19T15:33:28.430Z,13.18
2023-02-19T15:35:59.218Z,12.05
2023-02-19T15:38:26.944Z,12.18
2023-02-19T15:40:57.380Z,13.35
2023-02-19T15:43:49.901Z,12.63
2023-02-19T15:46:22.619Z,13.98
2023-02-19T15:49:15.610Z,12.25
2023-02-19T15:51:52.632Z,11.68
2023-02-19T15:54:28.912Z,12.05
2023-02-19T15:57:03.432Z,12.82
2023-02-19T15:59:34.070Z,12.48
2023-02-19T16:02:03.641Z,14.85
2023-02-19T16:04:31.154Z,15.65
2023-02-19T16:07:03.766Z,16.00
2023-02-19T16:09:37.427Z,12.68
2023-02-19T16:12:20.686Z,16.15
2023-02-19T16:14:49.388Z,15.75
2023-02-19T16:17:20.794Z,16.55
2023-02-19T16:19:58.081Z,14.45
2023-02-19T16:22:29.066Z,14.80
2023-02-19T16:25:02.403Z,14.35
2023-02-19T16:27:38.225Z,14.65
2023-02-19T16:30:17.590Z,15.93
2023-02-19T16:32:47.044Z,16.05
2023-02-19T16:35:42.416Z,16.60
2023-02-19T16:38:14.785Z,17.63
2023-02-19T16:40:51.203Z,14.70
2023-02-19T16:43:26.510Z,15.88
2023-02-19T16:45:53.982Z,16.20
2023-02-19T16:48:27.857Z,14.23
2023-02-19T16:50:55.992Z,15.63
2023-02-19T16:53:25.466Z,15.57
2023-02-19T16:55:52.956Z,15.43
2023-02-19T16:58:21.580Z,15.43
2023-02-19T17:00:48.667Z,15.63
2023-02-19T17:03:19.580Z,14.13
2023-02-19T17:05:47.934Z,13.52
2023-02-19T17:08:37.296Z,15.13
2023-02-19T17:11:10.412Z,14.73
2023-02-19T17:13:38.286Z,14.52
2023-02-19T17:16:05.724Z,17.08
2023-02-19T17:18:33.344Z,14.60
2023-02-19T17:21:13.821Z,15.32
2023-02-19T17:23:41.201Z,14.95
2023-02-19T17:26:16.394Z,15.38
2023-02-19T17:28:43.539Z,14.35
2023-02-19T17:31:11.685Z,13.20
2023-02-19T17:33:39.655Z,13.80
2023-02-19T17:36:22.012Z,12.98
2023-02-19T17:38:49.248Z,13.95
2023-02-19T17:41:19.396Z,13.43
2023-02-19T17:43:50.687Z,14.00
2023-02-19T17:46:19.257Z,15.38
2023-02-19T17:48:46.515Z,13.82
2023-02-19T17:51:14.299Z,14.05
2023-02-19T17:53:42.665Z,15.32
2023-02-19T17:56:12.117Z,14.02
2023-02-19T17:58:39.310Z,11.30
2023-02-19T18:01:06.350Z,13.20
2023-02-19T18:03:33.417Z,12.20
2023-02-19T18:06:01.168Z,12.20
2023-02-19T18:08:30.898Z,12.20
2023-02-19T18:10:58.202Z,13.50
2023-02-19T18:13:25.548Z,13.20
2023-02-19T18:15:53.754Z,13.00
2023-02-19T18:18:21.206Z,13.77
2023-02-19T18:20:48.284Z,10.52
2023-02-19T18:23:15.869Z,11.20
2023-02-19T18:25:42.970Z,13.48
2023-02-19T18:28:13.142Z,10.60
2023-02-19T18:30:40.306Z,10.75
2023-02-19T18:33:07.800Z,12.68
2023-02-19T18:35:35.138Z,10.98
2023-02-19T18:38:02.491Z,12.00
2023-02-19T18:40:30.822Z,15.13
2023-02-19T18:42:59.672Z,12.05
2023-02-19T18:45:27.926Z,11.80
2023-02-19T18:47:55.298Z,14.65
2023-02-19T18:50:22.750Z,13.30
2023-02-19T18:52:50.232Z,14.07
2023-02-19T18:55:17.591Z,14.05
2023-02-19T18:57:57.408Z,14.13
2023-02-19T19:00:27.346Z,13.25
2023-02-19T19:03:01.762Z,16.35
2023-02-19T19:05:29.102Z,14.63
2023-02-19T19:07:59.433Z,14.50
2023-02-19T19:10:31.057Z,15.23
2023-02-19T19:12:59.373Z,14.73
2023-02-19T19:15:26.834Z,14.55
2023-02-19T19:17:55.125Z,13.88
2023-02-19T19:20:24.006Z,13.65
2023-02-19T19:22:52.743Z,13.27
2023-02-19T19:25:21.585Z,15.23
2023-02-19T19:27:53.264Z,18.42
2023-02-19T19:30:20.749Z,16.83
2023-02-19T19:32:50.383Z,18.67
2023-02-19T19:35:20.285Z,12.18
2023-02-19T19:37:47.704Z,15.38
2023-02-19T19:40:17.583Z,16.35
2023-02-19T19:42:44.848Z,13.93
2023-02-19T19:45:13.909Z,16.23
2023-02-19T19:47:41.119Z,15.50
2023-02-19T19:50:13.513Z,14.82
2023-02-19T19:52:49.381Z,12.50
2023-02-19T19:55:17.902Z,15.00
2023-02-19T19:57:45.730Z,13.52
2023-02-19T20:00:16.235Z,14.75
2023-02-19T20:02:44.642Z,12.82
2023-02-19T20:05:18.906Z,14.43
2023-02-19T20:07:47.368Z,13.85
2023-02-19T20:10:17.011Z,14.15
2023-02-19T20:12:44.141Z,17.13
2023-02-19T20:15:12.509Z,13.20
2023-02-19T20:17:41.537Z,14.98
2023-02-19T20:20:09.406Z,14.35
2023-02-19T20:22:37.866Z,11.82
2023-02-19T20:25:05.240Z,12.02
2023-02-19T20:27:32.498Z,12.20
2023-02-19T20:29:59.778Z,11.98
2023-02-19T20:32:26.845Z,12.35
2023-02-19T20:34:53.957Z,13.05
2023-02-19T20:37:21.156Z,11.93
2023-02-19T20:39:50.399Z,13.48
2023-02-19T20:42:18.330Z,12.65
2023-02-19T20:44:45.714Z,10.82
2023-02-19T20:47:12.839Z,14.27
2023-02-19T20:49:45.260Z,11.98
2023-02-19T20:52:15.540Z,12.50
2023-02-19T20:54:45.841Z,14.23
2023-02-19T20:57:15.600Z,13.57
2023-02-19T20:59:44.453Z,12.23
2023-02-19T21:02:18.593Z,12.43
2023-02-19T21:04:45.865Z,14.30
2023-02-19T21:07:13.077Z,14.02
2023-02-19T21:09:40.302Z,17.30
2023-02-19T21:12:07.866Z,13.15
2023-02-19T21:14:34.984Z,16.52
2023-02-19T21:17:02.249Z,12.55
2023-02-19T21:19:29.780Z,11.65
2023-02-19T21:21:56.950Z,10.15
2023-02-19T21:24:24.437Z,10.93
2023-02-19T21:26:51.982Z,11.52
2023-02-19T21:29:22.458Z,10.00
2023-02-19T21:31:52.440Z,10.57
2023-02-19T21:34:22.473Z,11.57
2023-02-19T21:36:49.557Z,8.65
2023-02-19T21:39:19.352Z,7.68
2023-02-19T21:41:46.545Z,9.45
2023-02-19T21:44:14.036Z,8.15
2023-02-19T21:46:42.376Z,7.40
2023-02-19T21:49:10.286Z,7.68
2023-02-19T21:51:41.486Z,7.47
2023-02-19T21:54:14.653Z,10.65
2023-02-19T21:56:42.055Z,8.23
2023-02-19T21:59:09.550Z,7.50
2023-02-19T22:01:38.936Z,7.22
2023-02-19T22:04:07.741Z,7.93
2023-02-19T22:06:37.004Z,7.05
2023-02-19T22:09:04.442Z,8.20
2023-02-19T22:11:32.123Z,6.50
2023-02-19T22:13:59.446Z,9.20
2023-02-19T22:16:27.070Z,10.35
2023-02-19T22:18:57.233Z,7.88
2023-02-19T22:21:27.697Z,8.02
2023-02-19T22:23:55.380Z,6.75
2023-02-19T22:26:36.410Z,6.97
2023-02-19T22:29:07.517Z,6.93
2023-02-19T22:31:35.779Z,8.38
2023-02-19T22:34:03.977Z,8.77
2023-02-19T22:36:33.765Z,7.82
2023-02-19T22:39:01.692Z,6.40
2023-02-19T22:41:29.268Z,9.57
2023-02-19T22:43:57.632Z,10.05
2023-02-19T22:46:27.280Z,9.07
2023-02-19T22:48:54.422Z,9.65
2023-02-19T22:51:24.367Z,11.15
2023-02-19T22:53:56.719Z,7.28
2023-02-19T22:56:26.063Z,10.75
2023-02-19T22:58:55.247Z,8.73
2023-02-19T23:01:23.451Z,6.85
2023-02-19T23:03:53.086Z,10.02
2023-02-19T23:06:38.698Z,7.30
2023-02-19T23:09:11.135Z,8.77
2023-02-19T23:11:39.507Z,10.40
2023-02-19T23:14:07.974Z,7.80
2023-02-19T23:16:38.475Z,7.97
2023-02-19T23:19:07.181Z,9.40
2023-02-19T23:21:34.548Z,8.48
2023-02-19T23:24:01.886Z,5.80
2023-02-19T23:26:29.186Z,5.72
2023-02-19T23:28:57.134Z,7.68
2023-02-19T23:31:24.661Z,6.07
2023-02-19T23:33:51.910Z,6.65
2023-02-19T23:36:21.927Z,6.25
2023-02-19T23:38:49.175Z,7.10
2023-02-19T23:41:17.880Z,7.50
2023-02-19T23:43:45.719Z,7.75
2023-02-19T23:46:17.953Z,5.63
2023-02-19T23:48:46.406Z,6.53
2023-02-19T23:51:14.175Z,6.70
2023-02-19T23:53:42.626Z,7.00
2023-02-19T23:56:09.916Z,7.22
2023-02-19T23:58:37.812Z,7.20
